createdAt,value
2017-11-14T00:00:57.237Z,13.40
2017-11-14T00:03:24.869Z,15.33
2017-11-14T00:05:52.520Z,16.33
2017-11-14T00:08:20.137Z,17.10
2017-11-14T00:10:48.345Z,31.63
2017-11-14T00:13:15.953Z,21.27
2017-11-14T00:15:43.600Z,18.63
2017-11-14T00:18:12.090Z,23.77
2017-11-14T00:20:39.723Z,27.70
2017-11-14T00:23:08.162Z,19.83
2017-11-14T00:25:35.779Z,16.30
2017-11-14T00:28:04.203Z,16.33
2017-11-14T00:30:31.820Z,13.23
2017-11-14T00:32:59.495Z,17.93
2017-11-14T00:35:27.118Z,12.83
2017-11-14T00:37:55.513Z,17.47
2017-11-14T00:40:23.172Z,17.10
2017-11-14T00:42:51.592Z,16.47
2017-11-14T00:45:19.253Z,16.30
2017-11-14T00:47:46.876Z,20.77
2017-11-14T00:50:14.545Z,16.87
2017-11-14T00:52:42.945Z,20.60
2017-11-14T00:55:10.562Z,18.20
2017-11-14T00:57:38.993Z,17.10
2017-11-14T01:00:06.633Z,21.57
2017-11-14T01:02:34.328Z,21.67
2017-11-14T01:05:02.457Z,19.03
2017-11-14T01:07:30.119Z,19.03
2017-11-14T01:09:57.753Z,17.73
2017-11-14T01:12:26.164Z,22.10
2017-11-14T01:14:53.780Z,17.47
2017-11-14T01:17:22.224Z,18.87
2017-11-14T01:19:49.876Z,16.13
2017-11-14T01:22:17.593Z,17.60
2017-11-14T01:24:46.025Z,15.27
2017-11-14T01:27:13.660Z,20.70
2017-11-14T01:29:41.317Z,21.43
2017-11-14T01:32:08.957Z,22.00
2017-11-14T01:34:36.773Z,20.47
2017-11-14T01:37:04.420Z,21.37
2017-11-14T01:39:32.080Z,23.70
2017-11-14T01:41:59.743Z,23.33
2017-11-14T01:44:27.380Z,27.83
2017-11-14T01:46:55.820Z,22.03
2017-11-14T01:49:23.468Z,22.40
2017-11-14T01:51:51.128Z,23.20
2017-11-14T01:54:18.764Z,26.83
2017-11-14T01:56:46.487Z,23.03
2017-11-14T01:59:14.680Z,27.23
2017-11-14T02:01:42.888Z,22.73
2017-11-14T02:04:10.562Z,24.90
2017-11-14T02:06:39.029Z,22.33
2017-11-14T02:09:06.720Z,20.70
2017-11-14T02:11:34.368Z,19.33
2017-11-14T02:14:02.831Z,22.03
2017-11-14T02:16:30.520Z,19.73
2017-11-14T02:18:58.975Z,20.50
2017-11-14T02:21:26.673Z,22.40
2017-11-14T02:23:54.430Z,22.00
2017-11-14T02:26:22.132Z,23.40
2017-11-14T02:28:49.849Z,21.83
2017-11-14T02:31:17.596Z,30.63
2017-11-14T02:33:46.075Z,25.93
2017-11-14T02:36:14.529Z,27.33
2017-11-14T02:38:42.261Z,27.97
2017-11-14T02:41:09.941Z,26.37
2017-11-14T02:43:37.632Z,23.80
2017-11-14T02:46:06.102Z,22.27
2017-11-14T02:48:33.764Z,20.43
2017-11-14T02:51:01.506Z,25.07
2017-11-14T02:53:29.181Z,28.37
2017-11-14T02:55:56.955Z,26.40
2017-11-14T02:58:24.604Z,21.57
2017-11-14T03:00:52.329Z,22.50
2017-11-14T03:03:19.976Z,20.87
2017-11-14T03:05:47.632Z,21.63
2017-11-14T03:08:15.301Z,23.07
2017-11-14T03:10:42.990Z,26.03
2017-11-14T03:13:10.708Z,22.77
2017-11-14T03:15:38.368Z,25.13
2017-11-14T03:18:06.069Z,22.33
2017-11-14T03:20:33.784Z,21.50
2017-11-14T03:23:01.473Z,21.93
2017-11-14T03:25:29.153Z,20.23
2017-11-14T03:27:56.842Z,24.87
2017-11-14T03:30:25.312Z,25.47
2017-11-14T03:32:53.046Z,22.50
2017-11-14T03:35:20.725Z,21.77
2017-11-14T03:37:48.397Z,26.50
2017-11-14T03:40:16.114Z,21.60
2017-11-14T03:42:43.797Z,22.50
2017-11-14T03:45:11.516Z,21.80
2017-11-14T03:47:39.217Z,30.53
2017-11-14T03:50:06.908Z,26.63
2017-11-14T03:52:34.616Z,21.83
2017-11-14T03:55:02.295Z,26.93
2017-11-14T03:57:30.046Z,30.80
2017-11-14T03:59:57.727Z,21.17
2017-11-14T04:02:25.416Z,28.13
2017-11-14T04:04:53.116Z,25.47
2017-11-14T04:07:20.806Z,28.83
2017-11-14T04:09:48.449Z,26.37
2017-11-14T04:12:16.233Z,27.87
2017-11-14T04:14:44.782Z,26.77
2017-11-14T04:17:12.448Z,31.57
2017-11-14T04:19:40.100Z,37.33
2017-11-14T04:22:07.721Z,30.70
2017-11-14T04:24:36.163Z,26.67
2017-11-14T04:27:03.786Z,29.87
2017-11-14T04:29:31.587Z,27.07
2017-11-14T04:31:59.229Z,24.70
2017-11-14T04:34:26.861Z,26.33
2017-11-14T04:36:54.508Z,23.57
2017-11-14T04:39:22.923Z,25.70
2017-11-14T04:41:50.586Z,26.53
2017-11-14T04:44:18.204Z,28.77
2017-11-14T04:46:46.648Z,24.40
2017-11-14T04:49:14.341Z,27.10
2017-11-14T04:51:42.036Z,22.63
2017-11-14T04:54:09.686Z,22.77
2017-11-14T04:56:37.332Z,26.70
2017-11-14T04:59:05.772Z,23.30
2017-11-14T05:01:33.461Z,21.37
2017-11-14T05:04:01.898Z,28.30
2017-11-14T05:06:29.531Z,24.40
2017-11-14T05:08:57.189Z,27.10
2017-11-14T05:11:24.843Z,28.90
2017-11-14T05:13:52.529Z,32.97
2017-11-14T05:16:20.165Z,32.67
2017-11-14T05:18:47.817Z,29.53
2017-11-14T05:21:16.244Z,27.07
2017-11-14T05:23:43.901Z,26.30
2017-11-14T05:26:11.565Z,30.10
2017-11-14T05:28:39.211Z,31.03
2017-11-14T05:31:06.882Z,31.40
2017-11-14T05:33:34.551Z,39.93
2017-11-14T05:36:02.272Z,29.47
2017-11-14T05:38:29.901Z,28.43
2017-11-14T05:40:57.525Z,25.70
2017-11-14T05:43:25.208Z,33.17
2017-11-14T05:45:52.928Z,29.10
2017-11-14T05:48:20.585Z,37.37
2017-11-14T05:50:48.216Z,32.27
2017-11-14T05:53:15.887Z,31.27
2017-11-14T05:55:43.519Z,29.33
2017-11-14T05:58:11.209Z,33.07
2017-11-14T06:00:38.845Z,32.87
2017-11-14T06:03:07.331Z,29.63
2017-11-14T06:05:35.752Z,30.57
2017-11-14T06:08:03.409Z,37.20
2017-11-14T06:10:31.849Z,29.13
2017-11-14T06:13:00.240Z,38.77
2017-11-14T06:15:27.911Z,31.30
2017-11-14T06:17:55.565Z,37.93
2017-11-14T06:20:23.242Z,41.03
2017-11-14T06:22:50.880Z,35.57
2017-11-14T06:25:18.575Z,34.50
2017-11-14T06:27:46.263Z,39.47
2017-11-14T06:30:13.900Z,40.50
2017-11-14T06:32:41.562Z,40.23
2017-11-14T06:35:09.187Z,37.73
2017-11-14T06:37:36.862Z,39.53
2017-11-14T06:40:04.509Z,43.20
2017-11-14T06:42:32.192Z,37.80
2017-11-14T06:44:59.877Z,36.10
2017-11-14T06:47:27.520Z,38.67
2017-11-14T06:49:55.185Z,38.77
2017-11-14T06:52:22.840Z,38.47
2017-11-14T06:54:50.686Z,37.93
2017-11-14T06:57:18.316Z,40.03
2017-11-14T06:59:46.848Z,48.40
2017-11-14T07:02:14.488Z,41.53
2017-11-14T07:04:42.140Z,40.50
2017-11-14T07:07:09.812Z,42.93
2017-11-14T07:09:37.443Z,46.77
2017-11-14T07:12:05.858Z,45.00
2017-11-14T07:14:33.468Z,42.23
2017-11-14T07:17:01.888Z,37.30
2017-11-14T07:19:29.539Z,33.37
2017-11-14T07:21:57.200Z,38.43
2017-11-14T07:24:25.142Z,39.70
2017-11-14T07:26:52.808Z,43.60
2017-11-14T07:29:21.193Z,41.27
2017-11-14T07:31:48.917Z,63.03
2017-11-14T07:34:16.559Z,55.27
2017-11-14T07:36:44.193Z,34.03
2017-11-14T07:39:11.885Z,40.57
2017-11-14T07:41:39.568Z,58.10
2017-11-14T07:44:07.219Z,51.43
2017-11-14T07:46:34.829Z,33.97
2017-11-14T07:49:02.477Z,80.17
2017-11-14T07:51:30.113Z,53.97
2017-11-14T07:53:58.557Z,38.43
2017-11-14T07:56:26.195Z,37.13
2017-11-14T07:58:53.804Z,55.67
2017-11-14T08:01:22.264Z,104.33
2017-11-14T08:03:49.888Z,50.10
2017-11-14T08:06:17.589Z,49.20
2017-11-14T08:08:45.233Z,51.83
2017-11-14T08:11:12.969Z,35.60
2017-11-14T08:13:40.628Z,38.50
2017-11-14T08:16:08.292Z,39.77
2017-11-14T08:18:35.994Z,30.93
2017-11-14T08:21:03.680Z,37.17
2017-11-14T08:23:32.098Z,31.80
2017-11-14T08:25:59.757Z,33.00
2017-11-14T08:28:27.563Z,28.50
2017-11-14T08:30:55.190Z,29.70
2017-11-14T08:33:22.914Z,34.10
2017-11-14T08:35:50.536Z,33.13
2017-11-14T08:38:18.202Z,41.70
2017-11-14T08:40:45.915Z,38.23
2017-11-14T08:43:13.544Z,32.17
2017-11-14T08:45:41.987Z,33.67
2017-11-14T08:48:09.641Z,36.90
2017-11-14T08:50:37.324Z,28.97
2017-11-14T08:53:04.964Z,30.87
2017-11-14T08:55:32.788Z,33.50
2017-11-14T08:58:00.454Z,33.53
2017-11-14T09:00:28.208Z,34.97
2017-11-14T09:02:55.932Z,33.70
2017-11-14T09:05:23.624Z,52.27
2017-11-14T09:07:51.295Z,44.90
2017-11-14T09:10:18.953Z,48.10
2017-11-14T09:12:46.739Z,35.80
2017-11-14T09:15:14.458Z,34.80
2017-11-14T09:17:42.972Z,42.93
2017-11-14T09:20:10.648Z,37.77
2017-11-14T09:22:38.337Z,44.33
2017-11-14T09:25:06.048Z,31.17
2017-11-14T09:27:33.727Z,32.00
2017-11-14T09:30:01.473Z,33.03
2017-11-14T09:32:30.149Z,40.17
2017-11-14T09:34:57.913Z,29.00
2017-11-14T09:37:25.615Z,30.50
2017-11-14T09:39:53.287Z,30.77
2017-11-14T09:42:21.018Z,28.37
2017-11-14T09:44:48.695Z,27.57
2017-11-14T09:47:16.445Z,27.00
2017-11-14T09:49:44.172Z,37.17
2017-11-14T09:52:11.896Z,32.67
2017-11-14T09:54:39.616Z,32.17
2017-11-14T09:57:07.321Z,32.77
2017-11-14T09:59:34.995Z,36.17
2017-11-14T10:02:03.506Z,33.30
2017-11-14T10:04:31.225Z,33.43
2017-11-14T10:06:59.720Z,34.77
2017-11-14T10:09:28.157Z,40.60
2017-11-14T10:11:55.825Z,33.97
2017-11-14T10:14:23.507Z,31.17
2017-11-14T10:16:51.992Z,34.33
2017-11-14T10:19:20.447Z,33.93
2017-11-14T10:21:48.247Z,41.20
2017-11-14T10:24:15.971Z,30.43
2017-11-14T10:26:43.676Z,43.30
2017-11-14T10:29:11.406Z,37.47
2017-11-14T10:31:39.054Z,42.20
2017-11-14T10:34:06.773Z,38.00
2017-11-14T10:36:34.468Z,41.70
2017-11-14T10:39:02.237Z,37.63
2017-11-14T10:41:29.963Z,41.40
2017-11-14T10:43:57.654Z,36.83
2017-11-14T10:46:25.364Z,42.17
2017-11-14T10:48:53.128Z,28.80
2017-11-14T10:51:21.635Z,36.30
2017-11-14T10:53:49.326Z,33.60
2017-11-14T10:56:17.037Z,36.77
2017-11-14T10:58:44.764Z,40.40
2017-11-14T11:01:12.473Z,33.60
2017-11-14T11:03:40.177Z,33.20
2017-11-14T11:06:07.876Z,35.50
2017-11-14T11:08:35.536Z,37.13
2017-11-14T11:11:03.267Z,36.40
2017-11-14T11:13:30.961Z,32.30
2017-11-14T11:15:58.733Z,33.60
2017-11-14T11:18:26.440Z,37.13
2017-11-14T11:20:54.128Z,36.90
2017-11-14T11:23:22.626Z,36.60
2017-11-14T11:25:50.296Z,36.63
2017-11-14T11:28:18.017Z,35.93
2017-11-14T11:30:45.749Z,34.13
2017-11-14T11:33:13.485Z,32.00
2017-11-14T11:35:41.188Z,34.90
2017-11-14T11:38:08.914Z,32.73
2017-11-14T11:40:36.621Z,33.83
2017-11-14T11:43:05.191Z,30.00
2017-11-14T11:45:33.707Z,35.70
2017-11-14T11:48:01.424Z,33.80
2017-11-14T11:50:29.140Z,30.10
2017-11-14T11:52:56.916Z,40.30
2017-11-14T11:55:24.602Z,26.90
2017-11-14T11:57:52.300Z,26.67
2017-11-14T12:00:20.975Z,31.27
2017-11-14T12:02:49.523Z,30.87
2017-11-14T12:05:17.299Z,27.10
2017-11-14T12:07:45.003Z,25.73
2017-11-14T12:10:13.560Z,25.87
2017-11-14T12:12:41.257Z,28.00
2017-11-14T12:15:08.969Z,31.60
2017-11-14T12:17:36.689Z,26.80
2017-11-14T12:20:04.429Z,23.87
2017-11-14T12:22:32.906Z,23.97
2017-11-14T12:25:01.396Z,25.63
2017-11-14T12:27:29.829Z,23.30
2017-11-14T12:29:57.568Z,26.50
2017-11-14T12:32:25.274Z,24.53
2017-11-14T12:34:53.044Z,19.20
2017-11-14T12:37:21.465Z,27.07
2017-11-14T12:39:49.139Z,29.13
2017-11-14T12:42:16.828Z,34.20
2017-11-14T12:44:44.473Z,31.27
2017-11-14T12:47:12.189Z,32.50
2017-11-14T12:49:39.853Z,32.17
2017-11-14T12:52:07.588Z,31.90
2017-11-14T12:54:35.973Z,33.63
2017-11-14T12:57:04.421Z,37.20
2017-11-14T12:59:32.145Z,36.23
2017-11-14T13:01:59.817Z,32.80
2017-11-14T13:04:27.517Z,32.00
2017-11-14T13:06:55.206Z,35.57
2017-11-14T13:09:22.888Z,35.43
2017-11-14T13:11:50.555Z,37.63
2017-11-14T13:14:19.073Z,34.60
2017-11-14T13:16:46.737Z,35.33
2017-11-14T13:19:14.427Z,31.00
2017-11-14T13:21:42.091Z,32.60
2017-11-14T13:24:09.737Z,31.53
2017-11-14T13:26:38.218Z,35.17
2017-11-14T13:29:06.664Z,30.10
2017-11-14T13:31:34.393Z,33.47
2017-11-14T13:34:02.068Z,32.50
2017-11-14T13:36:29.754Z,30.17
2017-11-14T13:38:57.397Z,29.33
2017-11-14T13:41:25.057Z,30.07
2017-11-14T13:43:52.679Z,27.20
2017-11-14T13:46:20.328Z,29.77
2017-11-14T13:48:47.953Z,32.70
2017-11-14T13:51:15.743Z,30.43
2017-11-14T13:53:43.388Z,31.70
2017-11-14T13:56:11.776Z,31.60
2017-11-14T13:58:40.193Z,30.93
2017-11-14T14:01:07.866Z,30.50
2017-11-14T14:03:35.554Z,31.13
2017-11-14T14:06:03.217Z,33.70
2017-11-14T14:08:30.962Z,39.80
2017-11-14T14:10:58.616Z,39.17
2017-11-14T14:13:26.275Z,38.33
2017-11-14T14:15:53.892Z,36.17
2017-11-14T14:18:21.541Z,38.10
2017-11-14T14:20:49.194Z,36.87
2017-11-14T14:23:16.867Z,39.40
2017-11-14T14:25:44.544Z,37.40
2017-11-14T14:28:12.196Z,35.50
2017-11-14T14:30:39.834Z,36.27
2017-11-14T14:33:08.275Z,31.93
2017-11-14T14:35:35.947Z,35.97
2017-11-14T14:38:03.585Z,33.10
2017-11-14T14:40:31.285Z,30.67
2017-11-14T14:42:58.941Z,35.10
2017-11-14T14:45:26.620Z,27.70
2017-11-14T14:47:55.033Z,32.17
2017-11-14T14:50:22.808Z,33.90
2017-11-14T14:52:50.468Z,33.03
2017-11-14T14:55:18.161Z,29.90
2017-11-14T14:57:45.776Z,38.27
2017-11-14T15:00:13.424Z,33.37
2017-11-14T15:02:41.087Z,34.20
2017-11-14T15:05:08.737Z,39.10
2017-11-14T15:07:36.422Z,42.30
2017-11-14T15:10:04.059Z,39.40
2017-11-14T15:12:31.752Z,33.13
2017-11-14T15:14:59.475Z,34.07
2017-11-14T15:17:27.088Z,31.57
2017-11-14T15:19:54.802Z,32.73
2017-11-14T15:22:22.465Z,41.60
2017-11-14T15:24:50.106Z,34.60
2017-11-14T15:27:17.783Z,34.30
2017-11-14T15:29:45.461Z,37.63
2017-11-14T15:32:13.114Z,32.63
2017-11-14T15:34:40.780Z,39.73
2017-11-14T15:37:08.401Z,39.77
2017-11-14T15:39:36.866Z,38.83
2017-11-14T15:42:04.506Z,36.20
2017-11-14T15:44:32.184Z,42.50
2017-11-14T15:47:00.614Z,42.93
2017-11-14T15:49:28.337Z,45.33
2017-11-14T15:51:56.736Z,42.37
2017-11-14T15:54:24.356Z,38.17
2017-11-14T15:56:52.009Z,45.30
2017-11-14T15:59:19.685Z,46.27
2017-11-14T16:01:47.450Z,48.47
2017-11-14T16:04:15.845Z,43.70
2017-11-14T16:06:44.261Z,55.87
2017-11-14T16:09:11.945Z,51.33
2017-11-14T16:11:39.629Z,45.77
2017-11-14T16:14:08.044Z,41.43
2017-11-14T16:16:35.717Z,36.10
2017-11-14T16:19:03.388Z,46.23
2017-11-14T16:21:31.068Z,46.23
2017-11-14T16:23:58.710Z,53.53
2017-11-14T16:26:26.434Z,39.17
2017-11-14T16:28:54.111Z,46.87
2017-11-14T16:31:21.740Z,69.57
2017-11-14T16:33:50.195Z,46.70
2017-11-14T16:36:17.846Z,92.63
2017-11-14T16:38:45.592Z,39.80
2017-11-14T16:43:47.033Z,50.53
2017-11-14T16:46:15.561Z,178.43
2017-11-14T16:48:44.101Z,54.63
2017-11-14T16:51:11.793Z,141.37
2017-11-14T16:53:39.469Z,63.93
2017-11-14T16:56:07.177Z,46.47
2017-11-14T16:58:34.861Z,53.33
2017-11-14T17:01:02.668Z,63.00
2017-11-14T17:03:31.068Z,91.37
2017-11-14T17:05:58.808Z,100.03
2017-11-14T17:08:27.261Z,56.57
2017-11-14T17:10:55.021Z,83.87
2017-11-14T17:13:23.507Z,46.50
2017-11-14T17:15:51.195Z,53.00
2017-11-14T17:18:20.239Z,53.10
2017-11-14T17:20:47.918Z,107.10
2017-11-14T17:23:15.593Z,128.37
2017-11-14T17:25:43.259Z,96.53
2017-11-14T17:28:11.746Z,43.07
2017-11-14T17:30:39.485Z,72.57
2017-11-14T17:33:07.234Z,46.50
2017-11-14T17:35:34.935Z,71.80
2017-11-14T17:38:03.417Z,88.00
2017-11-14T17:40:31.047Z,112.57
2017-11-14T17:42:58.827Z,188.07
2017-11-14T17:45:27.294Z,73.87
2017-11-14T17:47:55.728Z,92.27
2017-11-14T17:50:23.417Z,148.73
2017-11-14T17:52:51.052Z,59.47
2017-11-14T17:55:18.735Z,77.70
2017-11-14T17:57:47.188Z,90.97
2017-11-14T18:00:14.896Z,109.50
2017-11-14T18:02:43.339Z,81.53
2017-11-14T18:05:11.009Z,156.83
2017-11-14T18:07:39.460Z,126.97
2017-11-14T18:10:07.146Z,256.20
2017-11-14T18:12:34.869Z,92.50
2017-11-14T18:15:02.593Z,70.63
2017-11-14T18:17:30.219Z,221.47
2017-11-14T18:19:57.868Z,59.07
2017-11-14T18:22:25.624Z,102.03
2017-11-14T18:24:53.319Z,168.57
2017-11-14T18:27:21.017Z,179.90
2017-11-14T18:29:48.729Z,155.57
2017-11-14T18:32:16.421Z,106.60
2017-11-14T18:34:44.268Z,136.20
2017-11-14T18:37:11.897Z,105.43
2017-11-14T18:39:39.566Z,148.10
2017-11-14T18:42:07.242Z,125.37
2017-11-14T18:44:34.893Z,81.87
2017-11-14T18:47:02.525Z,86.33
2017-11-14T18:49:30.265Z,105.70
2017-11-14T18:51:58.668Z,165.77
2017-11-14T18:54:26.409Z,122.80
2017-11-14T18:56:54.032Z,194.73
2017-11-14T18:59:21.938Z,294.47
2017-11-14T19:01:49.890Z,72.80
2017-11-14T19:04:18.608Z,141.70
2017-11-14T19:06:46.261Z,173.93
2017-11-14T19:09:14.150Z,227.47
2017-11-14T19:11:42.148Z,120.60
2017-11-14T19:14:10.010Z,126.30
2017-11-14T19:16:38.072Z,98.30
2017-11-14T19:19:05.881Z,124.53
2017-11-14T19:21:34.341Z,136.97
2017-11-14T19:24:02.765Z,165.23
2017-11-14T19:26:30.456Z,162.67
2017-11-14T19:28:58.120Z,90.47
2017-11-14T19:31:25.961Z,64.77
2017-11-14T19:33:53.970Z,83.47
2017-11-14T19:36:21.717Z,126.30
2017-11-14T19:38:49.444Z,82.00
2017-11-14T19:41:17.204Z,67.20
2017-11-14T19:43:45.140Z,77.70
2017-11-14T19:46:13.681Z,84.40
2017-11-14T19:48:42.206Z,92.63
2017-11-14T19:51:10.034Z,73.50
2017-11-14T19:53:37.734Z,93.50
2017-11-14T19:56:05.461Z,63.50
2017-11-14T19:58:33.360Z,95.17
2017-11-14T20:01:01.932Z,78.63
2017-11-14T20:03:30.574Z,105.13
2017-11-14T20:05:58.473Z,73.47
2017-11-14T20:08:26.335Z,141.43
2017-11-14T20:10:54.889Z,93.87
2017-11-14T20:13:22.787Z,132.23
2017-11-14T20:15:51.275Z,137.47
2017-11-14T20:18:19.757Z,98.10
2017-11-14T20:20:47.612Z,100.77
2017-11-14T20:23:16.068Z,77.70
2017-11-14T20:25:43.749Z,91.00
2017-11-14T20:28:12.150Z,90.40
2017-11-14T20:30:39.969Z,76.93
2017-11-14T20:33:07.656Z,92.10
2017-11-14T20:35:36.110Z,132.67
2017-11-14T20:38:03.845Z,107.43
2017-11-14T20:40:31.569Z,84.07
2017-11-14T20:43:00.471Z,70.40
2017-11-14T20:45:28.157Z,84.50
2017-11-14T20:47:55.841Z,68.57
2017-11-14T20:50:23.642Z,71.60
2017-11-14T20:52:51.422Z,84.83
2017-11-14T20:55:19.183Z,76.13
2017-11-14T20:57:47.069Z,75.57
2017-11-14T21:00:14.994Z,76.03
2017-11-14T21:02:42.985Z,70.63
2017-11-14T21:05:10.880Z,68.30
2017-11-14T21:07:38.869Z,72.60
2017-11-14T21:10:06.750Z,74.87
2017-11-14T21:12:35.352Z,63.53
2017-11-14T21:15:03.380Z,70.43
2017-11-14T21:17:31.837Z,66.93
2017-11-14T21:19:59.551Z,60.90
2017-11-14T21:22:27.193Z,70.10
2017-11-14T21:24:55.621Z,60.07
2017-11-14T21:27:23.266Z,65.53
2017-11-14T21:29:50.918Z,70.23
2017-11-14T21:32:18.903Z,67.03
2017-11-14T21:34:46.868Z,69.70
2017-11-14T21:37:14.882Z,67.03
2017-11-14T21:39:43.520Z,64.63
2017-11-14T21:42:12.673Z,72.53
2017-11-14T21:44:40.639Z,75.37
2017-11-14T21:47:09.410Z,74.20
2017-11-14T21:49:38.074Z,70.47
2017-11-14T21:52:06.807Z,64.93
2017-11-14T21:54:35.734Z,63.30
2017-11-14T21:57:04.667Z,69.50
2017-11-14T21:59:32.405Z,63.27
2017-11-14T22:02:00.359Z,49.90
2017-11-14T22:04:28.106Z,57.87
2017-11-14T22:06:55.865Z,59.43
2017-11-14T22:09:23.854Z,52.17
2017-11-14T22:11:51.821Z,59.13
2017-11-14T22:14:20.017Z,61.07
2017-11-14T22:16:48.004Z,60.27
2017-11-14T22:19:15.776Z,65.73
2017-11-14T22:21:44.328Z,62.33
2017-11-14T22:24:13.367Z,61.53
2017-11-14T22:26:42.010Z,54.07
2017-11-14T22:29:11.413Z,58.40
2017-11-14T22:31:39.968Z,58.47
2017-11-14T22:34:07.960Z,66.37
2017-11-14T22:36:35.886Z,55.37
2017-11-14T22:39:03.931Z,57.33
2017-11-14T22:41:31.656Z,69.23
2017-11-14T22:43:59.342Z,62.60
2017-11-14T22:46:27.006Z,58.93
2017-11-14T22:48:54.669Z,52.00
2017-11-14T22:51:22.449Z,69.20
2017-11-14T22:53:50.123Z,67.30
2017-11-14T22:56:17.818Z,59.10
2017-11-14T22:58:45.478Z,63.77
2017-11-14T23:01:13.156Z,56.57
2017-11-14T23:03:41.612Z,66.70
2017-11-14T23:06:09.249Z,67.40
2017-11-14T23:08:36.929Z,52.20
2017-11-14T23:11:04.591Z,61.93
2017-11-14T23:13:32.270Z,63.53
2017-11-14T23:16:01.693Z,69.97
2017-11-14T23:18:29.354Z,62.63
2017-11-14T23:20:57.016Z,63.70
2017-11-14T23:23:24.644Z,63.73
2017-11-14T23:25:52.331Z,64.90
2017-11-14T23:28:19.993Z,65.73
2017-11-14T23:30:47.654Z,60.50
2017-11-14T23:33:15.291Z,59.67
2017-11-14T23:35:43.792Z,57.10
2017-11-14T23:38:11.429Z,61.83
2017-11-14T23:40:40.434Z,73.40
2017-11-14T23:43:08.856Z,68.90
2017-11-14T23:45:36.493Z,62.73
2017-11-14T23:48:04.682Z,65.73
2017-11-14T23:50:32.381Z,55.37
2017-11-14T23:53:00.029Z,64.53
2017-11-14T23:55:27.668Z,62.07
2017-11-14T23:57:55.327Z,64.20
